Skagway, AK

8:12 AM AKST on February 01, 2015 (GMT -0900)
Juneau International | Change Station
CLOSE
Current Station
Airport
Location: Juneau,
Elevation: 23 ft
Nearby Weather Stations
Active Advisory: Winter Weather Advisory

Elev 23 ft 58.35 °N, 134.58 °W | Updated 19 minutes ago

Partly Cloudy
Partly Cloudy
33 °F
Feels Like 28 °F
N
6
Wind Variable Wind from NE
Gusts 24 mph

Today
High -- | Low -- °F
--% Chance of Precip.
Yesterday
High -- | Low -- °F
Precip. -- in
8:12 AM 4:18 PM
Waxing Gibbous, 95% visible
Pressure 30.03 in
Visibility 10.0 miles
Clouds Few 20000 ft
Windchill 28 °F
Dew Point 11 °F
Humidity 40%
Rainfall 0.00 in
Snow Depth Not available.
UV 0 out of 12
Pollen Not available.
Air Quality Not available.
Flu Activity Not available.
METAR PAJN 011653Z 05005G21KT 10SM FEW200 01/M12 A3003 RMK AO2 SLP169 T00061117

More Conditions Fewer Conditions

Pressure 30.03 in
Visibility 10.0 miles
Clouds Few 20000 ft
Windchill 28 °F
Dew Point 11 °F
Humidity 40%
Rainfall 0.00 in
Snow Depth Not available.
UV 0 out of 12
Pollen Not available.
Air Quality Not available.
Flu Activity Not available.
METAR PAJN 011653Z 05005G21KT 10SM FEW200 01/M12 A3003 RMK AO2 SLP169 T00061117

More Conditions Fewer Conditions

10-Day Weather Forecast

Almanac

Astronomy

Feb. 01, 2015 Rise Set
Actual Time
Civil Twilight
Nautical Twilight
Astronomical Twilight
Moon
Length of Visible Light
Length of Day
Tomorrow will be .
, % of the Moon is Illuminated

Today's Extremes

State Highs State Lows

Community

WunderPhotos

Upload Photos

1,792,394 photos uploaded!

WunderBlogs® & News

Nearby

Air Quality

  Air Quality AQ Index Pollutant
Not available.

Snow Depth

Station Depth Elevation

Earthquake Activity

City Distance Mag. Time & Date
Minimum magnitude displayed is 2.5.

Coastal Water Temperatures

Place Temperature

Nearby Weather Stations